< < Back
Terminal Aerodrome Forecast


Current Version              Previous Versions:   1  2  3  4  5  6  7  8  9  

Terminal Aerodrome Forecast

001
FTUS42 KGSP 301730
TAFAND
TAF
KAND 301730Z 3018/3118 01003KT P6SM VCTS BKN060CB
     FM310000 29003KT P6SM SCT070
     FM310600 01006KT P6SM FEW060
     FM311500 04010G18KT P6SM FEW060=

Latest METAR

406
SAUS70 KWBC 311300 RRD
MTRAND
METAR KAND 311256Z AUTO 06009KT 10SM CLR 27/19 A3000 RMK AO2 SLP148
T02720189


USA.gov is the U.S. government's official web portal to all federal, state and local government web resources and services.